createdAt,value
2022-07-29T00:03:49.893Z,18.70
2022-07-29T00:07:51.620Z,18.60
2022-07-29T00:11:54.066Z,18.60
2022-07-29T00:15:55.867Z,18.60
2022-07-29T00:19:57.688Z,18.60
2022-07-29T00:23:59.352Z,18.60
2022-07-29T00:28:01.104Z,18.50
2022-07-29T00:32:03.643Z,18.50
2022-07-29T00:36:05.725Z,18.40
2022-07-29T00:40:08.299Z,18.40
2022-07-29T00:44:10.007Z,18.30
2022-07-29T00:48:12.509Z,18.40
2022-07-29T00:52:17.209Z,18.30
2022-07-29T00:56:19.375Z,18.20
2022-07-29T01:00:24.262Z,18.20
2022-07-29T01:04:26.465Z,18.20
2022-07-29T01:08:28.546Z,18.30
2022-07-29T01:12:34.531Z,18.20
2022-07-29T01:16:50.667Z,18.20
2022-07-29T01:21:14.213Z,18.20
2022-07-29T01:25:26.695Z,18.20
2022-07-29T01:29:36.036Z,18.10
2022-07-29T01:33:52.305Z,18.10
2022-07-29T01:38:13.445Z,18.20
2022-07-29T01:42:27.267Z,18.00
2022-07-29T01:46:35.657Z,18.00
2022-07-29T01:50:48.193Z,18.00
2022-07-29T01:54:58.106Z,18.00
2022-07-29T01:59:00.724Z,17.90
2022-07-29T02:03:08.200Z,17.90
2022-07-29T02:07:12.028Z,17.90
2022-07-29T02:11:13.828Z,17.90
2022-07-29T02:15:17.188Z,17.90
2022-07-29T02:19:22.045Z,17.90
2022-07-29T02:23:25.651Z,17.80
2022-07-29T02:27:29.268Z,17.80
2022-07-29T02:31:35.057Z,17.70
2022-07-29T02:35:37.970Z,17.60
2022-07-29T02:39:47.832Z,17.60
2022-07-29T02:43:59.320Z,17.70
2022-07-29T02:48:12.070Z,17.80
2022-07-29T02:52:43.653Z,17.90
2022-07-29T02:56:47.016Z,17.90
2022-07-29T03:00:52.418Z,17.80
2022-07-29T03:04:56.858Z,17.70
2022-07-29T03:09:00.934Z,17.70
2022-07-29T03:13:02.994Z,17.50
2022-07-29T03:17:05.079Z,17.50
2022-07-29T03:21:06.949Z,17.50
2022-07-29T03:25:10.112Z,17.50
2022-07-29T03:29:11.800Z,17.50
2022-07-29T03:33:15.903Z,17.40
2022-07-29T03:37:17.616Z,17.50
2022-07-29T03:41:22.311Z,17.50
2022-07-29T03:45:26.275Z,17.50
2022-07-29T03:49:28.951Z,17.40
2022-07-29T03:53:30.785Z,17.50
2022-07-29T03:57:33.717Z,17.40
2022-07-29T04:01:36.238Z,17.40
2022-07-29T04:05:38.126Z,17.20
2022-07-29T04:09:39.807Z,17.10
2022-07-29T04:13:41.457Z,16.80
2022-07-29T04:17:43.827Z,16.70
2022-07-29T04:21:46.095Z,16.50
2022-07-29T04:25:47.931Z,16.40
2022-07-29T04:29:56.383Z,16.40
2022-07-29T04:33:58.930Z,16.40
2022-07-29T04:38:00.621Z,16.30
2022-07-29T04:42:02.291Z,16.20
2022-07-29T04:46:04.733Z,16.10
2022-07-29T04:50:07.954Z,16.10
2022-07-29T04:54:09.747Z,16.10
2022-07-29T04:58:11.818Z,15.90
2022-07-29T05:02:13.622Z,15.70
2022-07-29T05:06:15.495Z,15.50
2022-07-29T05:10:17.182Z,15.40
2022-07-29T05:14:19.382Z,15.20
2022-07-29T05:18:21.887Z,15.00
2022-07-29T05:22:27.776Z,14.90
2022-07-29T05:26:29.465Z,14.60
2022-07-29T05:30:31.230Z,14.40
2022-07-29T05:34:33.216Z,14.30
2022-07-29T05:38:36.276Z,14.40
2022-07-29T05:42:37.913Z,14.40
2022-07-29T05:46:39.650Z,14.40
2022-07-29T05:50:44.015Z,14.40
2022-07-29T05:54:46.404Z,14.50
2022-07-29T05:58:48.047Z,14.50
2022-07-29T06:02:49.727Z,14.50
2022-07-29T06:06:51.441Z,14.60
2022-07-29T06:10:53.113Z,14.70
2022-07-29T06:14:54.808Z,14.90
2022-07-29T06:18:56.540Z,15.10
2022-07-29T06:22:58.440Z,15.20
2022-07-29T06:27:00.132Z,15.40
2022-07-29T06:31:01.888Z,15.50
2022-07-29T06:35:31.993Z,15.60
2022-07-29T06:39:25.770Z,15.70
2022-07-29T06:43:56.869Z,15.70
2022-07-29T06:47:58.700Z,15.70
2022-07-29T06:52:00.486Z,15.70
2022-07-29T06:56:03.791Z,15.70
2022-07-29T07:00:06.739Z,15.80
2022-07-29T07:04:11.619Z,15.80
2022-07-29T07:08:14.140Z,15.90
2022-07-29T07:12:15.832Z,16.00
2022-07-29T07:16:17.680Z,16.00
2022-07-29T07:20:20.011Z,16.00
2022-07-29T07:24:21.712Z,16.20
2022-07-29T07:28:24.999Z,16.10
2022-07-29T07:32:27.066Z,16.10
2022-07-29T07:36:28.776Z,16.20
2022-07-29T07:40:30.470Z,16.20
2022-07-29T07:44:32.163Z,16.30
2022-07-29T07:48:35.682Z,16.20
2022-07-29T07:52:53.890Z,16.20
2022-07-29T07:56:55.831Z,16.20
2022-07-29T08:00:57.711Z,16.20
2022-07-29T08:05:00.488Z,16.20
2022-07-29T08:09:26.807Z,16.10
2022-07-29T08:13:28.140Z,16.10
2022-07-29T08:17:30.104Z,16.10
2022-07-29T08:21:37.436Z,16.20
2022-07-29T08:25:40.280Z,16.20
2022-07-29T08:29:42.192Z,16.10
2022-07-29T08:33:43.965Z,16.10
2022-07-29T08:37:45.679Z,16.20
2022-07-29T08:42:01.854Z,16.10
2022-07-29T08:46:03.658Z,16.10
2022-07-29T08:50:05.844Z,16.10
2022-07-29T08:54:17.765Z,16.00
2022-07-29T08:58:23.003Z,15.90
2022-07-29T09:02:27.827Z,15.80
2022-07-29T09:06:40.499Z,15.70
2022-07-29T09:10:42.396Z,15.80
2022-07-29T09:14:44.128Z,15.70
2022-07-29T09:18:55.654Z,15.70
2022-07-29T09:22:57.359Z,15.80
2022-07-29T09:26:59.107Z,15.80
2022-07-29T09:31:01.053Z,16.00
2022-07-29T09:35:25.516Z,16.30
2022-07-29T09:39:47.530Z,16.50
2022-07-29T09:44:00.067Z,16.80
2022-07-29T09:48:25.590Z,17.10
2022-07-29T09:52:28.897Z,17.30
2022-07-29T09:56:43.268Z,17.50
2022-07-29T10:00:46.603Z,17.80
2022-07-29T10:04:48.472Z,17.90
2022-07-29T10:08:50.736Z,17.90
2022-07-29T10:12:55.818Z,17.70
2022-07-29T10:16:58.122Z,17.60
2022-07-29T10:21:01.987Z,17.60
2022-07-29T10:25:04.060Z,17.60
2022-07-29T10:29:05.717Z,17.80
2022-07-29T10:33:40.159Z,17.90
2022-07-29T10:38:20.832Z,18.00
2022-07-29T10:42:33.572Z,18.20
2022-07-29T10:46:41.865Z,18.40
2022-07-29T10:50:55.378Z,18.60
2022-07-29T10:54:59.442Z,18.60
2022-07-29T10:59:23.473Z,18.80
2022-07-29T11:03:49.204Z,18.80
2022-07-29T11:08:20.197Z,19.00
2022-07-29T11:12:37.775Z,18.90
2022-07-29T11:17:07.293Z,19.10
2022-07-29T11:21:53.815Z,19.40
2022-07-29T11:26:18.532Z,19.80
2022-07-29T11:30:21.013Z,19.90
2022-07-29T11:34:33.306Z,20.30
2022-07-29T11:38:36.614Z,20.50
2022-07-29T11:42:44.974Z,21.10
2022-07-29T11:46:51.852Z,21.70
2022-07-29T11:50:56.006Z,21.90
2022-07-29T11:55:09.663Z,22.00
2022-07-29T11:59:15.166Z,22.30
2022-07-29T12:03:34.937Z,22.50
2022-07-29T12:07:39.465Z,22.60
2022-07-29T12:11:45.079Z,22.60
2022-07-29T12:15:57.701Z,22.70
2022-07-29T12:20:05.909Z,22.60
2022-07-29T12:24:10.077Z,22.60
2022-07-29T12:28:14.330Z,22.80
2022-07-29T12:32:35.858Z,22.80
2022-07-29T12:36:38.258Z,23.00
2022-07-29T12:40:40.549Z,22.90
2022-07-29T12:44:49.954Z,23.00
2022-07-29T12:48:57.475Z,23.00
2022-07-29T12:53:13.193Z,23.00
2022-07-29T12:57:19.973Z,22.80
2022-07-29T13:01:22.418Z,22.80
2022-07-29T13:05:25.119Z,23.00
2022-07-29T13:09:38.224Z,23.50
2022-07-29T13:14:05.866Z,24.00
2022-07-29T13:18:31.542Z,24.20
2022-07-29T13:22:33.232Z,24.30
2022-07-29T13:26:35.603Z,24.20
2022-07-29T13:30:37.350Z,24.10
2022-07-29T13:34:46.407Z,24.10
2022-07-29T13:38:48.293Z,24.20
2022-07-29T13:42:50.021Z,24.40
2022-07-29T13:46:51.968Z,24.60
2022-07-29T13:50:53.718Z,24.50
2022-07-29T13:54:55.368Z,24.90
2022-07-29T13:58:58.092Z,25.00
2022-07-29T14:02:59.811Z,25.40
2022-07-29T14:07:03.562Z,25.90
2022-07-29T14:11:05.695Z,25.60
2022-07-29T14:15:07.775Z,25.70
2022-07-29T14:19:09.488Z,25.50
2022-07-29T14:23:11.201Z,25.50
2022-07-29T14:27:14.691Z,25.80
2022-07-29T14:31:16.970Z,25.50
2022-07-29T14:35:18.757Z,25.50
2022-07-29T14:39:20.446Z,25.80
2022-07-29T14:43:22.131Z,25.80
2022-07-29T14:47:24.286Z,25.90
2022-07-29T14:51:25.947Z,25.60
2022-07-29T14:55:34.373Z,25.50
2022-07-29T14:59:36.032Z,25.30
2022-07-29T15:03:37.758Z,25.50
2022-07-29T15:07:39.467Z,25.10
2022-07-29T15:11:41.323Z,24.90
2022-07-29T15:15:43.024Z,25.10
2022-07-29T15:19:44.783Z,25.20
2022-07-29T15:23:55.554Z,24.90
2022-07-29T15:28:01.077Z,24.60
2022-07-29T15:32:03.579Z,24.50
2022-07-29T15:36:05.653Z,24.00
2022-07-29T15:40:08.468Z,23.90
2022-07-29T15:44:10.232Z,23.80
2022-07-29T15:48:14.578Z,23.60
2022-07-29T15:52:24.816Z,23.70
2022-07-29T15:56:27.955Z,23.80
2022-07-29T16:00:29.661Z,23.60
2022-07-29T16:04:31.974Z,23.40
2022-07-29T16:08:33.695Z,23.30
2022-07-29T16:12:35.400Z,23.20
2022-07-29T16:16:37.542Z,23.30
2022-07-29T16:20:39.431Z,23.20
2022-07-29T16:24:41.608Z,23.40
2022-07-29T16:28:43.607Z,23.50
2022-07-29T16:32:45.843Z,23.40
2022-07-29T16:36:47.999Z,23.50
2022-07-29T16:40:49.851Z,23.30
2022-07-29T16:44:51.678Z,23.20
2022-07-29T16:48:53.455Z,23.30
2022-07-29T16:52:56.176Z,23.30
2022-07-29T16:57:00.397Z,23.20
2022-07-29T17:01:03.116Z,23.20
2022-07-29T17:05:06.930Z,23.00
2022-07-29T17:09:10.705Z,23.00
2022-07-29T17:13:12.443Z,23.00
2022-07-29T17:17:16.634Z,22.90
2022-07-29T17:21:23.467Z,22.90
2022-07-29T17:25:25.139Z,22.80
2022-07-29T17:29:27.076Z,23.00
2022-07-29T17:33:28.788Z,22.80
2022-07-29T17:37:30.519Z,22.80
2022-07-29T17:41:32.478Z,22.70
2022-07-29T17:45:48.884Z,22.60
2022-07-29T17:49:52.162Z,22.60
2022-07-29T17:53:53.963Z,22.50
2022-07-29T17:57:59.927Z,22.40
2022-07-29T18:02:01.810Z,22.30
2022-07-29T18:06:03.898Z,22.20
2022-07-29T18:10:06.036Z,22.10
2022-07-29T18:14:08.016Z,22.00
2022-07-29T18:18:09.827Z,21.80
2022-07-29T18:22:13.130Z,21.70
2022-07-29T18:26:14.807Z,21.50
2022-07-29T18:30:16.690Z,21.40
2022-07-29T18:34:18.393Z,21.30
2022-07-29T18:38:21.795Z,21.20
2022-07-29T18:42:23.482Z,21.00
2022-07-29T18:46:25.542Z,20.90
2022-07-29T18:50:29.617Z,20.70
2022-07-29T18:54:31.762Z,20.60
2022-07-29T18:58:33.483Z,20.50
2022-07-29T19:02:37.932Z,20.30
2022-07-29T19:06:40.905Z,20.10
2022-07-29T19:10:42.681Z,19.90
2022-07-29T19:14:44.491Z,19.70
2022-07-29T19:18:47.280Z,19.50
2022-07-29T19:22:49.016Z,19.30
2022-07-29T19:26:50.687Z,19.10
2022-07-29T19:30:52.781Z,18.90
2022-07-29T19:35:13.139Z,18.70
2022-07-29T19:39:15.350Z,18.50
2022-07-29T19:43:51.149Z,18.30
2022-07-29T19:47:38.715Z,18.10
2022-07-29T19:51:41.611Z,18.00
2022-07-29T19:55:43.366Z,17.90
2022-07-29T19:59:45.091Z,17.70
2022-07-29T20:03:46.915Z,17.60
2022-07-29T20:07:48.715Z,17.50
2022-07-29T20:11:50.421Z,17.30
2022-07-29T20:15:52.140Z,17.20
2022-07-29T20:19:54.095Z,17.10
2022-07-29T20:24:00.242Z,17.00
2022-07-29T20:28:01.926Z,17.00
2022-07-29T20:32:04.328Z,16.80
2022-07-29T20:36:06.254Z,16.70
2022-07-29T20:40:12.606Z,16.60
2022-07-29T20:44:15.021Z,16.50
2022-07-29T20:48:16.804Z,16.40
2022-07-29T20:52:19.484Z,16.40
2022-07-29T20:56:21.255Z,16.30
2022-07-29T21:00:23.089Z,16.30
2022-07-29T21:04:28.664Z,16.30
2022-07-29T21:08:32.670Z,16.30
2022-07-29T21:12:34.386Z,16.30
2022-07-29T21:16:36.295Z,16.30
2022-07-29T21:20:38.044Z,16.30
2022-07-29T21:24:39.879Z,16.20
2022-07-29T21:28:41.604Z,16.20
2022-07-29T21:32:43.328Z,16.20
2022-07-29T21:36:48.538Z,16.20
2022-07-29T21:41:00.934Z,16.20
2022-07-29T21:45:02.649Z,16.20
2022-07-29T21:49:11.454Z,16.30
2022-07-29T21:53:15.762Z,16.30
2022-07-29T21:57:17.910Z,16.20
2022-07-29T22:01:19.653Z,16.30
2022-07-29T22:05:21.862Z,16.30
2022-07-29T22:09:24.235Z,16.30
2022-07-29T22:13:25.991Z,16.30
2022-07-29T22:17:27.703Z,16.30
2022-07-29T22:21:29.964Z,16.30
2022-07-29T22:25:31.689Z,16.30
2022-07-29T22:29:33.488Z,16.30
2022-07-29T22:33:35.313Z,16.20
2022-07-29T22:37:37.216Z,16.20
2022-07-29T22:41:38.887Z,16.20
2022-07-29T22:45:41.392Z,16.20
2022-07-29T22:49:43.387Z,16.20
2022-07-29T22:53:45.078Z,16.30
2022-07-29T22:57:46.742Z,16.20
2022-07-29T23:01:48.462Z,16.20
2022-07-29T23:05:51.680Z,16.10
2022-07-29T23:09:53.405Z,16.10
2022-07-29T23:13:55.080Z,16.00
2022-07-29T23:17:56.770Z,15.90
2022-07-29T23:21:58.758Z,15.80
2022-07-29T23:26:00.579Z,15.70
2022-07-29T23:30:02.613Z,15.50
2022-07-29T23:34:04.508Z,15.50
2022-07-29T23:38:06.378Z,15.40
2022-07-29T23:42:08.061Z,15.30
2022-07-29T23:46:09.773Z,15.10
2022-07-29T23:50:12.567Z,15.10
2022-07-29T23:54:14.826Z,15.00
2022-07-29T23:58:16.546Z,14.90
